createdAt,value
2022-12-03T00:00:12.206Z,4.40
2022-12-03T00:03:35.937Z,4.45
2022-12-03T00:07:00.452Z,4.52
2022-12-03T00:10:24.400Z,4.55
2022-12-03T00:13:46.112Z,4.48
2022-12-03T00:17:07.616Z,4.47
2022-12-03T00:20:29.191Z,4.44
2022-12-03T00:23:50.722Z,4.51
2022-12-03T00:27:14.492Z,4.52
2022-12-03T00:30:36.025Z,4.56
2022-12-03T00:33:57.695Z,4.77
2022-12-03T00:37:19.224Z,4.77
2022-12-03T00:40:41.204Z,4.64
2022-12-03T00:44:05.114Z,4.59
2022-12-03T00:47:26.662Z,4.59
2022-12-03T00:50:50.547Z,4.55
2022-12-03T00:54:12.165Z,4.58
2022-12-03T00:57:33.697Z,4.58
2022-12-03T01:00:55.222Z,4.59
2022-12-03T01:04:19.525Z,4.58
2022-12-03T01:07:43.791Z,4.59
2022-12-03T01:11:27.652Z,4.56
2022-12-03T01:14:49.290Z,4.56
2022-12-03T01:18:13.140Z,4.58
2022-12-03T01:21:37.561Z,4.68
2022-12-03T01:25:01.795Z,4.69
2022-12-03T01:28:23.312Z,4.64
2022-12-03T01:32:03.430Z,4.59
2022-12-03T01:35:25.010Z,4.61
2022-12-03T01:38:46.601Z,4.65
2022-12-03T01:42:12.935Z,4.64
2022-12-03T01:45:34.501Z,4.69
2022-12-03T01:48:56.743Z,4.71
2022-12-03T01:52:21.675Z,4.68
2022-12-03T01:55:48.822Z,4.65
2022-12-03T01:59:18.611Z,4.59
2022-12-03T02:02:42.910Z,4.64
2022-12-03T02:06:06.378Z,4.69
2022-12-03T02:09:30.377Z,4.66
2022-12-03T02:13:07.804Z,4.66
2022-12-03T02:16:32.326Z,4.65
2022-12-03T02:19:56.806Z,4.66
2022-12-03T02:23:27.712Z,4.69
2022-12-03T02:26:49.358Z,4.68
2022-12-03T02:30:31.042Z,4.68
2022-12-03T02:33:54.967Z,4.65
2022-12-03T02:37:24.285Z,4.68
2022-12-03T02:40:48.260Z,4.58
2022-12-03T02:44:10.116Z,4.56
2022-12-03T02:47:34.903Z,4.58
2022-12-03T02:51:01.298Z,4.59
2022-12-03T02:54:23.104Z,4.59
2022-12-03T02:57:49.117Z,4.52
2022-12-03T03:01:11.189Z,4.47
2022-12-03T03:04:35.315Z,4.45
2022-12-03T03:07:59.354Z,4.48
2022-12-03T03:11:23.521Z,4.54
2022-12-03T03:14:45.399Z,4.55
2022-12-03T03:18:12.300Z,4.55
2022-12-03T03:21:33.983Z,4.55
2022-12-03T03:24:58.039Z,4.55
2022-12-03T03:28:19.882Z,4.61
2022-12-03T03:31:45.266Z,4.72
2022-12-03T03:35:09.878Z,4.49
2022-12-03T03:38:32.139Z,4.51
2022-12-03T03:41:53.761Z,4.52
2022-12-03T03:45:25.696Z,4.56
2022-12-03T03:48:51.422Z,4.69
2022-12-03T03:52:13.424Z,4.75
2022-12-03T03:55:35.176Z,4.71
2022-12-03T03:58:56.851Z,4.66
2022-12-03T04:02:26.370Z,4.65
2022-12-03T04:05:51.015Z,4.66
2022-12-03T04:09:15.046Z,4.61
2022-12-03T04:12:55.135Z,4.52
2022-12-03T04:16:18.740Z,4.42
2022-12-03T04:19:40.462Z,4.45
2022-12-03T04:23:02.056Z,4.47
2022-12-03T04:26:45.124Z,4.45
2022-12-03T04:30:07.128Z,4.52
2022-12-03T04:33:49.601Z,4.47
2022-12-03T04:37:11.869Z,4.47
2022-12-03T04:40:51.727Z,4.44
2022-12-03T04:44:31.562Z,4.44
2022-12-03T04:47:56.557Z,4.36
2022-12-03T04:51:20.469Z,4.33
2022-12-03T04:54:42.634Z,4.36
2022-12-03T04:58:04.504Z,4.33
2022-12-03T05:01:26.270Z,4.33
2022-12-03T05:04:50.127Z,4.30
2022-12-03T05:08:11.770Z,4.30
2022-12-03T05:11:33.671Z,4.30
2022-12-03T05:14:57.736Z,4.28
2022-12-03T05:18:19.210Z,4.24
2022-12-03T05:21:43.209Z,4.22
2022-12-03T05:25:10.410Z,4.22
2022-12-03T05:28:34.957Z,4.25
2022-12-03T05:31:59.254Z,4.34
2022-12-03T05:35:23.186Z,4.34
2022-12-03T05:38:44.705Z,4.38
2022-12-03T05:42:32.601Z,4.48
2022-12-03T05:45:54.156Z,4.49
2022-12-03T05:49:18.202Z,4.55
2022-12-03T05:52:41.788Z,4.61
2022-12-03T05:56:03.378Z,4.59
2022-12-03T05:59:24.910Z,4.56
2022-12-03T06:02:46.675Z,4.55
2022-12-03T06:06:10.515Z,4.52
2022-12-03T06:09:32.068Z,4.56
2022-12-03T06:12:53.641Z,4.62
2022-12-03T06:16:19.776Z,4.73
2022-12-03T06:19:41.307Z,4.71
2022-12-03T06:23:03.029Z,4.62
2022-12-03T06:26:24.673Z,4.59
2022-12-03T06:29:48.619Z,4.52
2022-12-03T06:33:10.160Z,4.59
2022-12-03T06:36:34.266Z,4.66
2022-12-03T06:39:57.914Z,4.64
2022-12-03T06:43:19.495Z,4.65
2022-12-03T06:46:43.802Z,4.61
2022-12-03T06:50:06.931Z,4.59
2022-12-03T06:53:28.456Z,4.66
2022-12-03T06:56:52.546Z,4.75
2022-12-03T07:00:14.467Z,4.79
2022-12-03T07:03:38.600Z,4.82
2022-12-03T07:07:00.082Z,4.89
2022-12-03T07:10:22.329Z,4.76
2022-12-03T07:13:48.790Z,4.82
2022-12-03T07:17:10.339Z,4.92
2022-12-03T07:20:31.865Z,4.90
2022-12-03T07:23:55.844Z,4.90
2022-12-03T07:27:19.723Z,4.92
2022-12-03T07:30:46.144Z,4.89
2022-12-03T07:34:10.201Z,4.90
2022-12-03T07:37:34.567Z,4.95
2022-12-03T07:40:58.389Z,4.90
2022-12-03T07:44:22.080Z,4.92
2022-12-03T07:47:43.649Z,5.01
2022-12-03T07:51:05.582Z,5.04
2022-12-03T07:54:29.312Z,5.09
2022-12-03T07:57:51.215Z,5.09
2022-12-03T08:01:13.020Z,5.19
2022-12-03T08:04:34.657Z,5.26
2022-12-03T08:07:56.549Z,5.28
2022-12-03T08:11:23.207Z,5.31
2022-12-03T08:14:44.734Z,5.33
2022-12-03T08:18:23.119Z,5.35
2022-12-03T08:21:47.225Z,5.38
2022-12-03T08:25:25.557Z,5.65
2022-12-03T08:28:49.497Z,5.92
2022-12-03T08:32:13.849Z,6.03
2022-12-03T08:35:35.457Z,6.27
2022-12-03T08:39:00.679Z,6.65
2022-12-03T08:42:41.937Z,6.77
2022-12-03T08:46:03.604Z,6.96
2022-12-03T08:49:25.224Z,7.31
2022-12-03T08:52:52.795Z,7.64
2022-12-03T08:56:28.957Z,7.71
2022-12-03T08:59:56.039Z,7.44
2022-12-03T09:03:19.905Z,7.19
2022-12-03T09:06:43.997Z,7.27
2022-12-03T09:10:06.225Z,7.28
2022-12-03T09:13:30.122Z,7.27
2022-12-03T09:16:55.928Z,7.30
2022-12-03T09:20:20.143Z,7.57
2022-12-03T09:23:41.666Z,7.58
2022-12-03T09:27:03.449Z,7.68
2022-12-03T09:30:27.533Z,7.86
2022-12-03T09:33:49.121Z,8.26
2022-12-03T09:37:10.652Z,8.60
2022-12-03T09:40:32.445Z,8.53
2022-12-03T09:44:15.841Z,8.44
2022-12-03T09:47:35.992Z,8.12
2022-12-03T09:50:57.585Z,8.01
2022-12-03T09:54:27.293Z,8.01
2022-12-03T09:57:48.997Z,7.95
2022-12-03T10:01:15.370Z,8.10
2022-12-03T10:04:39.497Z,8.41
2022-12-03T10:08:22.281Z,8.59
2022-12-03T10:11:43.978Z,8.81
2022-12-03T10:15:06.303Z,9.27
2022-12-03T10:18:32.086Z,10.25
2022-12-03T10:21:58.366Z,10.79
2022-12-03T10:25:23.007Z,11.97
2022-12-03T10:28:47.090Z,13.38
2022-12-03T10:32:11.803Z,14.20
2022-12-03T10:35:39.215Z,14.88
2022-12-03T10:39:15.705Z,15.15
2022-12-03T10:42:39.467Z,14.43
2022-12-03T10:46:04.673Z,13.48
2022-12-03T10:49:26.921Z,13.11
2022-12-03T10:52:48.679Z,12.75
2022-12-03T10:56:19.681Z,12.55
2022-12-03T10:59:42.359Z,11.43
2022-12-03T11:03:04.172Z,11.31
2022-12-03T11:06:25.709Z,11.45
2022-12-03T11:09:50.014Z,11.59
2022-12-03T11:13:51.546Z,12.21
2022-12-03T11:17:13.107Z,12.10
2022-12-03T11:20:46.506Z,11.95
2022-12-03T11:24:21.084Z,12.63
2022-12-03T11:27:45.071Z,13.23
2022-12-03T11:31:12.504Z,14.02
2022-12-03T11:34:33.984Z,14.52
2022-12-03T11:38:15.491Z,14.60
2022-12-03T11:41:40.426Z,14.99
2022-12-03T11:45:04.564Z,14.74
2022-12-03T11:48:28.715Z,14.71
2022-12-03T11:51:50.710Z,15.43
2022-12-03T11:55:28.434Z,15.43
2022-12-03T11:59:00.692Z,14.84
2022-12-03T12:02:25.563Z,13.86
2022-12-03T12:05:47.134Z,13.36
2022-12-03T12:09:08.718Z,13.18
2022-12-03T12:12:38.617Z,13.00
2022-12-03T12:16:05.285Z,13.24
2022-12-03T12:19:43.226Z,13.11
2022-12-03T12:23:22.933Z,12.82
2022-12-03T12:26:52.432Z,13.14
2022-12-03T12:30:19.275Z,13.33
2022-12-03T12:33:41.004Z,12.96
2022-12-03T12:37:02.781Z,12.63
2022-12-03T12:40:28.015Z,11.79
2022-12-03T12:43:52.261Z,11.18
2022-12-03T12:47:13.879Z,11.01
2022-12-03T12:50:39.385Z,10.85
2022-12-03T12:54:01.770Z,10.39
2022-12-03T12:57:26.496Z,10.14
2022-12-03T13:00:55.291Z,9.99
2022-12-03T13:04:21.341Z,9.84
2022-12-03T13:07:45.728Z,9.54
2022-12-03T13:11:26.495Z,9.27
2022-12-03T13:14:54.782Z,9.35
2022-12-03T13:18:38.649Z,9.19
2022-12-03T13:22:19.271Z,9.02
2022-12-03T13:26:04.318Z,8.92
2022-12-03T13:29:26.693Z,8.93
2022-12-03T13:32:48.207Z,8.71
2022-12-03T13:36:16.535Z,8.61
2022-12-03T13:39:43.644Z,8.57
2022-12-03T13:43:15.005Z,8.65
2022-12-03T13:46:36.580Z,8.75
2022-12-03T13:50:04.172Z,8.68
2022-12-03T13:53:32.638Z,8.63
2022-12-03T13:56:56.696Z,8.59
2022-12-03T14:00:18.568Z,8.50
2022-12-03T14:03:42.503Z,8.51
2022-12-03T14:07:04.370Z,8.60
2022-12-03T14:10:25.950Z,8.59
2022-12-03T14:13:49.662Z,8.56
2022-12-03T14:17:11.759Z,8.60
2022-12-03T14:20:36.510Z,8.63
2022-12-03T14:23:58.050Z,8.64
2022-12-03T14:27:22.919Z,8.54
2022-12-03T14:30:44.444Z,8.43
2022-12-03T14:34:05.974Z,8.39
2022-12-03T14:37:27.752Z,8.29
2022-12-03T14:40:49.265Z,8.12
2022-12-03T14:44:10.836Z,8.10
2022-12-03T14:47:32.380Z,8.07
2022-12-03T14:50:53.995Z,8.12
2022-12-03T14:54:18.001Z,8.06
2022-12-03T14:57:39.677Z,7.95
2022-12-03T15:01:01.231Z,7.95
2022-12-03T15:04:23.018Z,7.96
2022-12-03T15:07:47.562Z,7.96
2022-12-03T15:11:09.131Z,7.96
2022-12-03T15:14:33.158Z,7.85
2022-12-03T15:17:57.743Z,7.88
2022-12-03T15:21:28.543Z,7.89
2022-12-03T15:24:59.995Z,7.86
2022-12-03T15:28:23.087Z,7.78
2022-12-03T15:31:46.946Z,7.92
2022-12-03T15:35:08.915Z,7.79
2022-12-03T15:38:33.063Z,7.67
2022-12-03T15:41:54.900Z,7.54
2022-12-03T15:45:18.750Z,7.60
2022-12-03T15:48:40.292Z,7.42
2022-12-03T15:52:01.874Z,7.34
2022-12-03T15:55:23.407Z,7.20
2022-12-03T15:58:47.259Z,7.24
2022-12-03T16:02:09.177Z,7.28
2022-12-03T16:05:30.803Z,7.26
2022-12-03T16:08:52.318Z,7.13
2022-12-03T16:12:13.837Z,7.12
2022-12-03T16:15:35.432Z,7.36
2022-12-03T16:18:57.049Z,7.26
2022-12-03T16:22:21.976Z,7.27
2022-12-03T16:25:45.791Z,7.34
2022-12-03T16:29:07.366Z,7.30
2022-12-03T16:32:28.956Z,7.07
2022-12-03T16:35:50.492Z,7.15
2022-12-03T16:39:13.109Z,7.19
2022-12-03T16:42:39.648Z,7.17
2022-12-03T16:46:21.120Z,7.30
2022-12-03T16:49:42.728Z,7.22
2022-12-03T16:53:06.601Z,7.16
2022-12-03T16:56:30.463Z,7.10
2022-12-03T16:59:53.077Z,7.05
2022-12-03T17:03:18.367Z,7.06
2022-12-03T17:06:39.959Z,7.03
2022-12-03T17:10:01.539Z,7.07
2022-12-03T17:13:23.339Z,7.06
2022-12-03T17:16:44.879Z,7.06
2022-12-03T17:20:09.378Z,7.05
2022-12-03T17:23:30.901Z,6.95
2022-12-03T17:26:55.085Z,6.84
2022-12-03T17:30:19.270Z,6.74
2022-12-03T17:33:40.845Z,6.61
2022-12-03T17:37:07.382Z,6.59
2022-12-03T17:40:29.034Z,6.61
2022-12-03T17:43:50.535Z,6.58
2022-12-03T17:47:14.535Z,6.55
2022-12-03T17:50:39.306Z,6.54
2022-12-03T17:54:03.338Z,6.55
2022-12-03T17:57:25.662Z,6.42
2022-12-03T18:00:48.639Z,6.34
2022-12-03T18:04:12.500Z,6.30
2022-12-03T18:07:34.256Z,6.34
2022-12-03T18:10:55.964Z,6.36
2022-12-03T18:14:17.517Z,6.44
2022-12-03T18:17:41.246Z,6.47
2022-12-03T18:21:05.425Z,6.48
2022-12-03T18:24:27.464Z,6.54
2022-12-03T18:27:54.193Z,6.44
2022-12-03T18:31:18.565Z,6.42
2022-12-03T18:34:42.704Z,6.34
2022-12-03T18:38:04.882Z,6.29
2022-12-03T18:41:26.841Z,6.36
2022-12-03T18:44:50.435Z,6.29
2022-12-03T18:48:13.914Z,6.38
2022-12-03T18:51:35.467Z,6.44
2022-12-03T18:54:57.700Z,6.42
2022-12-03T18:58:19.423Z,6.30
2022-12-03T19:01:45.804Z,6.24
2022-12-03T19:05:07.730Z,6.16
2022-12-03T19:08:31.901Z,6.09
2022-12-03T19:11:53.388Z,6.07
2022-12-03T19:15:15.029Z,6.07
2022-12-03T19:18:39.515Z,5.98
2022-12-03T19:22:01.049Z,5.93
2022-12-03T19:25:22.594Z,6.00
2022-12-03T19:28:44.188Z,6.03
2022-12-03T19:32:06.068Z,5.99
2022-12-03T19:35:30.750Z,5.79
2022-12-03T19:38:57.415Z,5.76
2022-12-03T19:42:19.375Z,5.75
2022-12-03T19:45:41.405Z,5.85
2022-12-03T19:49:06.224Z,5.82
2022-12-03T19:52:30.061Z,5.71
2022-12-03T19:55:51.670Z,5.85
2022-12-03T19:59:14.296Z,5.92
2022-12-03T20:02:35.989Z,5.93
2022-12-03T20:05:59.992Z,5.79
2022-12-03T20:09:22.636Z,5.76
2022-12-03T20:12:44.277Z,5.72
2022-12-03T20:16:09.390Z,5.73
2022-12-03T20:19:30.933Z,5.85
2022-12-03T20:22:53.043Z,5.88
2022-12-03T20:26:17.963Z,5.82
2022-12-03T20:29:39.636Z,5.76
2022-12-03T20:33:03.409Z,5.83
2022-12-03T20:36:28.769Z,5.86
2022-12-03T20:39:50.995Z,5.79
2022-12-03T20:43:12.842Z,5.89
2022-12-03T20:46:34.419Z,5.85
2022-12-03T20:49:58.302Z,5.90
2022-12-03T20:53:25.355Z,5.79
2022-12-03T20:56:47.218Z,5.72
2022-12-03T21:00:09.101Z,5.73
2022-12-03T21:03:32.935Z,5.83
2022-12-03T21:06:54.455Z,5.88
2022-12-03T21:10:34.667Z,5.90
2022-12-03T21:13:57.266Z,5.99
2022-12-03T21:17:19.464Z,6.07
2022-12-03T21:20:46.143Z,5.99
2022-12-03T21:24:08.796Z,5.93
2022-12-03T21:27:31.130Z,5.95
2022-12-03T21:30:52.902Z,5.89
2022-12-03T21:34:14.834Z,5.83
2022-12-03T21:37:36.344Z,5.83
2022-12-03T21:40:58.513Z,5.96
2022-12-03T21:44:23.262Z,5.93
2022-12-03T21:47:50.361Z,6.00
2022-12-03T21:51:14.331Z,6.07
2022-12-03T21:54:35.833Z,6.09
2022-12-03T21:57:57.357Z,6.00
2022-12-03T22:01:21.690Z,5.92
2022-12-03T22:04:43.400Z,5.76
2022-12-03T22:08:05.684Z,5.83
2022-12-03T22:11:27.296Z,5.79
2022-12-03T22:14:51.159Z,5.75
2022-12-03T22:18:12.701Z,5.78
2022-12-03T22:21:35.644Z,5.76
2022-12-03T22:24:57.313Z,5.82
2022-12-03T22:28:21.386Z,5.82
2022-12-03T22:31:43.012Z,5.89
2022-12-03T22:35:04.961Z,5.96
2022-12-03T22:38:28.324Z,6.02
2022-12-03T22:41:50.143Z,6.06
2022-12-03T22:45:17.061Z,6.06
2022-12-03T22:48:42.851Z,6.00
2022-12-03T22:52:07.246Z,6.02
2022-12-03T22:55:28.760Z,6.09
2022-12-03T22:58:51.061Z,6.02
2022-12-03T23:02:12.711Z,6.00
2022-12-03T23:05:37.079Z,6.06
2022-12-03T23:09:01.339Z,6.05
2022-12-03T23:12:22.867Z,6.14
2022-12-03T23:15:49.648Z,6.09
2022-12-03T23:19:11.664Z,6.05
2022-12-03T23:22:35.575Z,6.06
2022-12-03T23:26:08.408Z,6.03
2022-12-03T23:29:29.925Z,5.98
2022-12-03T23:32:52.488Z,5.96
2022-12-03T23:36:14.764Z,5.93
2022-12-03T23:39:36.336Z,5.95
2022-12-03T23:43:00.519Z,5.83
2022-12-03T23:46:26.039Z,5.78
2022-12-03T23:49:50.093Z,5.90
2022-12-03T23:53:11.665Z,5.89
2022-12-03T23:56:35.423Z,5.86
2022-12-03T23:59:59.297Z,5.82
